createdAt,value
2022-10-29T00:00:54.666Z,9.77
2022-10-29T00:03:23.218Z,7.95
2022-10-29T00:05:58.611Z,9.20
2022-10-29T00:08:26.479Z,8.73
2022-10-29T00:10:53.393Z,10.80
2022-10-29T00:13:20.392Z,7.47
2022-10-29T00:15:47.410Z,8.43
2022-10-29T00:18:14.455Z,10.32
2022-10-29T00:20:41.841Z,11.55
2022-10-29T00:23:08.844Z,10.27
2022-10-29T00:25:35.865Z,9.63
2022-10-29T00:28:02.867Z,10.18
2022-10-29T00:30:29.766Z,8.70
2022-10-29T00:32:56.912Z,8.15
2022-10-29T00:35:24.256Z,9.55
2022-10-29T00:37:51.212Z,8.82
2022-10-29T00:40:19.101Z,9.82
2022-10-29T00:42:46.071Z,9.00
2022-10-29T00:45:20.773Z,9.18
2022-10-29T00:47:52.000Z,6.78
2022-10-29T00:50:21.539Z,10.15
2022-10-29T00:52:50.781Z,8.63
2022-10-29T00:55:19.992Z,6.63
2022-10-29T00:57:51.644Z,8.55
2022-10-29T01:00:20.886Z,8.80
2022-10-29T01:02:49.099Z,8.35
2022-10-29T01:05:20.228Z,7.18
2022-10-29T01:07:48.328Z,12.13
2022-10-29T01:10:16.806Z,8.57
2022-10-29T01:13:19.909Z,6.97
2022-10-29T01:16:08.310Z,8.25
2022-10-29T01:18:40.903Z,8.43
2022-10-29T01:21:35.479Z,5.22
2022-10-29T01:24:33.696Z,8.10
2022-10-29T01:27:28.657Z,5.65
2022-10-29T01:30:20.130Z,6.65
2022-10-29T01:33:23.605Z,6.63
2022-10-29T01:36:08.872Z,8.25
2022-10-29T01:38:35.831Z,11.17
2022-10-29T01:41:02.867Z,6.53
2022-10-29T01:43:47.283Z,7.55
2022-10-29T01:46:38.534Z,5.78
2022-10-29T01:49:13.008Z,10.05
2022-10-29T01:51:40.615Z,4.97
2022-10-29T01:54:10.347Z,6.63
2022-10-29T01:56:37.767Z,8.38
2022-10-29T01:59:18.273Z,7.40
2022-10-29T02:02:17.533Z,7.45
2022-10-29T02:05:33.962Z,6.20
2022-10-29T02:08:15.266Z,7.07
2022-10-29T02:10:53.714Z,5.45
2022-10-29T02:13:28.772Z,5.78
2022-10-29T02:15:57.762Z,6.32
2022-10-29T02:18:25.070Z,5.07
2022-10-29T02:20:52.199Z,6.93
2022-10-29T02:23:19.502Z,7.03
2022-10-29T02:25:47.709Z,6.40
2022-10-29T02:28:14.758Z,5.57
2022-10-29T02:30:41.862Z,5.43
2022-10-29T02:33:08.845Z,4.93
2022-10-29T02:35:37.000Z,6.30
2022-10-29T02:38:04.260Z,4.93
2022-10-29T02:40:32.026Z,6.25
2022-10-29T02:42:59.386Z,6.40
2022-10-29T02:45:26.538Z,5.93
2022-10-29T02:47:53.619Z,8.43
2022-10-29T02:50:20.787Z,5.18
2022-10-29T02:52:47.771Z,6.22
2022-10-29T02:55:14.850Z,7.00
2022-10-29T02:57:45.330Z,6.13
2022-10-29T03:00:13.733Z,4.50
2022-10-29T03:02:41.178Z,6.55
2022-10-29T03:05:09.246Z,7.32
2022-10-29T03:07:37.328Z,6.93
2022-10-29T03:10:05.919Z,6.63
2022-10-29T03:12:33.211Z,6.35
2022-10-29T03:15:00.530Z,5.60
2022-10-29T03:17:27.563Z,4.97
2022-10-29T03:19:54.516Z,5.13
2022-10-29T03:22:21.415Z,6.60
2022-10-29T03:24:48.426Z,4.70
2022-10-29T03:27:15.324Z,7.88
2022-10-29T03:29:42.573Z,3.95
2022-10-29T03:32:09.495Z,5.57
2022-10-29T03:34:36.556Z,3.33
2022-10-29T03:37:03.539Z,7.82
2022-10-29T03:39:30.590Z,3.92
2022-10-29T03:41:57.596Z,6.15
2022-10-29T03:44:25.298Z,5.80
2022-10-29T03:46:52.477Z,5.05
2022-10-29T03:49:19.378Z,5.10
2022-10-29T03:51:47.070Z,4.35
2022-10-29T03:54:13.970Z,7.70
2022-10-29T03:56:40.988Z,5.68
2022-10-29T04:01:35.906Z,5.93
2022-10-29T04:04:03.063Z,6.03
2022-10-29T04:06:30.020Z,6.03
2022-10-29T04:08:56.973Z,5.75
2022-10-29T04:11:24.253Z,4.25
2022-10-29T04:13:54.787Z,6.20
2022-10-29T04:16:21.828Z,7.47
2022-10-29T04:18:49.538Z,6.90
2022-10-29T04:29:39.533Z,6.22
2022-10-29T04:32:06.757Z,5.78
2022-10-29T04:34:33.711Z,4.93
2022-10-29T04:37:00.735Z,4.00
2022-10-29T04:39:28.370Z,5.15
2022-10-29T04:41:55.718Z,7.75
2022-10-29T04:44:22.666Z,5.63
2022-10-29T04:46:49.661Z,8.45
2022-10-29T04:49:16.748Z,5.63
2022-10-29T04:51:43.855Z,5.65
2022-10-29T04:54:10.961Z,6.57
2022-10-29T04:56:37.877Z,6.05
2022-10-29T04:59:04.949Z,6.53
2022-10-29T05:01:32.083Z,6.00
2022-10-29T05:04:00.223Z,6.35
2022-10-29T05:06:27.341Z,7.78
2022-10-29T05:08:54.317Z,6.78
2022-10-29T05:11:21.449Z,6.20
2022-10-29T05:13:48.476Z,8.18
2022-10-29T05:16:15.445Z,7.07
2022-10-29T05:18:42.464Z,5.45
2022-10-29T05:21:09.426Z,6.85
2022-10-29T05:23:36.485Z,5.78
2022-10-29T05:26:03.825Z,9.00
2022-10-29T05:28:31.307Z,8.40
2022-10-29T05:31:01.536Z,6.75
2022-10-29T05:33:28.825Z,5.63
2022-10-29T05:35:55.766Z,7.53
2022-10-29T05:38:22.798Z,8.40
2022-10-29T05:40:49.851Z,6.70
2022-10-29T05:43:17.468Z,5.07
2022-10-29T05:45:45.325Z,8.27
2022-10-29T05:50:39.870Z,7.05
2022-10-29T05:53:09.785Z,7.10
2022-10-29T05:55:37.318Z,10.00
2022-10-29T05:58:13.887Z,7.10
2022-10-29T06:00:43.524Z,6.28
2022-10-29T06:03:19.276Z,7.30
2022-10-29T06:05:47.500Z,8.30
2022-10-29T06:08:15.722Z,7.38
2022-10-29T06:10:42.949Z,8.02
2022-10-29T06:13:15.041Z,7.10
2022-10-29T06:15:42.337Z,6.97
2022-10-29T06:18:09.524Z,6.65
2022-10-29T06:20:37.900Z,6.45
2022-10-29T06:23:05.286Z,7.38
2022-10-29T06:25:32.679Z,7.80
2022-10-29T06:28:07.774Z,7.57
2022-10-29T06:30:36.384Z,7.78
2022-10-29T06:33:04.990Z,9.45
2022-10-29T06:38:01.017Z,8.77
2022-10-29T06:40:28.882Z,10.90
2022-10-29T06:43:04.087Z,11.85
2022-10-29T06:45:33.495Z,8.40
2022-10-29T06:48:00.702Z,8.27
2022-10-29T06:50:29.371Z,9.48
2022-10-29T06:53:02.477Z,8.85
2022-10-29T06:55:30.246Z,9.93
2022-10-29T06:58:05.556Z,7.32
2022-10-29T07:00:33.717Z,7.57
2022-10-29T07:03:01.837Z,12.35
2022-10-29T07:05:28.948Z,10.68
2022-10-29T07:07:57.775Z,10.98
2022-10-29T07:10:27.183Z,10.55
2022-10-29T07:12:54.251Z,10.60
2022-10-29T07:15:25.632Z,9.27
2022-10-29T07:18:01.451Z,9.57
2022-10-29T07:20:30.517Z,9.43
2022-10-29T07:22:59.507Z,7.60
2022-10-29T07:25:28.354Z,6.63
2022-10-29T07:27:56.679Z,9.52
2022-10-29T07:30:24.993Z,10.20
2022-10-29T07:32:52.012Z,10.75
2022-10-29T07:35:18.995Z,9.35
2022-10-29T07:37:45.887Z,10.13
2022-10-29T07:40:13.569Z,10.02
2022-10-29T07:42:40.581Z,10.75
2022-10-29T07:45:08.136Z,9.02
2022-10-29T07:47:35.932Z,9.32
2022-10-29T07:50:02.886Z,9.05
2022-10-29T07:52:29.689Z,7.55
2022-10-29T07:54:56.588Z,10.35
2022-10-29T07:57:23.638Z,12.60
2022-10-29T07:59:52.079Z,10.35
2022-10-29T08:02:19.171Z,9.50
2022-10-29T08:04:46.235Z,8.48
2022-10-29T08:07:13.197Z,8.82
2022-10-29T08:09:40.817Z,7.97
2022-10-29T08:12:11.379Z,9.13
2022-10-29T08:14:38.450Z,10.48
2022-10-29T08:17:05.441Z,10.43
2022-10-29T08:19:32.538Z,8.48
2022-10-29T08:21:59.541Z,10.20
2022-10-29T08:24:26.541Z,7.65
2022-10-29T08:26:53.503Z,8.80
2022-10-29T08:29:20.554Z,10.02
2022-10-29T08:31:47.721Z,10.25
2022-10-29T08:34:14.614Z,10.27
2022-10-29T08:36:42.042Z,9.40
2022-10-29T08:39:09.117Z,10.40
2022-10-29T08:41:53.516Z,9.05
2022-10-29T08:44:33.848Z,8.77
2022-10-29T08:47:13.875Z,9.32
2022-10-29T08:50:05.259Z,10.05
2022-10-29T08:52:37.849Z,9.10
2022-10-29T08:55:19.911Z,8.18
2022-10-29T08:57:55.521Z,11.02
2022-10-29T09:00:27.896Z,6.78
2022-10-29T09:02:59.117Z,8.90
2022-10-29T09:05:33.086Z,7.53
2022-10-29T09:08:05.845Z,8.27
2022-10-29T09:10:37.182Z,10.07
2022-10-29T09:13:22.924Z,7.38
2022-10-29T09:16:21.282Z,10.20
2022-10-29T09:19:13.312Z,8.63
2022-10-29T09:21:57.158Z,9.77
2022-10-29T09:24:37.247Z,9.60
2022-10-29T09:27:16.170Z,9.70
2022-10-29T09:29:58.037Z,12.40
2022-10-29T09:32:36.341Z,10.80
2022-10-29T09:35:16.242Z,8.93
2022-10-29T09:37:47.548Z,12.65
2022-10-29T09:40:34.210Z,9.18
2022-10-29T09:43:07.331Z,12.85
2022-10-29T09:45:49.977Z,10.93
2022-10-29T09:48:32.514Z,8.07
2022-10-29T09:51:37.728Z,10.93
2022-10-29T09:54:05.162Z,12.60
2022-10-29T09:56:32.533Z,22.15
2022-10-29T09:59:16.560Z,10.65
2022-10-29T10:01:47.443Z,10.70
2022-10-29T10:04:26.459Z,9.15
2022-10-29T10:07:11.665Z,7.55
2022-10-29T10:09:56.320Z,8.30
2022-10-29T10:12:37.483Z,7.88
2022-10-29T10:15:06.570Z,8.57
2022-10-29T10:17:53.676Z,8.23
2022-10-29T10:20:45.682Z,8.15
2022-10-29T10:23:43.753Z,8.32
2022-10-29T10:26:36.992Z,7.30
2022-10-29T10:29:13.473Z,9.43
2022-10-29T10:31:47.525Z,9.55
2022-10-29T10:34:20.742Z,6.18
2022-10-29T10:36:50.627Z,7.75
2022-10-29T10:39:29.036Z,9.35
2022-10-29T10:42:01.813Z,8.23
2022-10-29T10:44:29.376Z,8.68
2022-10-29T10:47:00.913Z,10.60
2022-10-29T10:49:33.097Z,8.55
2022-10-29T10:52:03.024Z,10.85
2022-10-29T10:54:42.220Z,7.50
2022-10-29T10:57:12.288Z,7.85
2022-10-29T10:59:46.369Z,8.52
2022-10-29T11:02:29.864Z,10.03
2022-10-29T11:05:10.354Z,11.00
2022-10-29T11:07:42.312Z,11.23
2022-10-29T11:10:12.075Z,6.85
2022-10-29T11:12:44.317Z,6.55
2022-10-29T11:15:36.330Z,8.60
2022-10-29T11:18:18.841Z,8.77
2022-10-29T11:20:54.965Z,9.20
2022-10-29T11:23:32.288Z,8.68
2022-10-29T11:26:32.032Z,11.50
2022-10-29T11:29:02.876Z,7.97
2022-10-29T11:31:39.794Z,9.10
2022-10-29T11:34:23.158Z,7.35
2022-10-29T11:37:31.893Z,8.60
2022-10-29T11:40:21.893Z,12.93
2022-10-29T11:42:49.080Z,13.07
2022-10-29T11:45:32.673Z,9.00
2022-10-29T11:48:51.262Z,8.70
2022-10-29T11:51:28.541Z,7.05
2022-10-29T11:53:58.691Z,9.43
2022-10-29T11:56:50.791Z,8.75
2022-10-29T11:59:58.202Z,7.10
2022-10-29T12:02:54.993Z,7.10
2022-10-29T12:05:44.474Z,11.65
2022-10-29T12:08:31.859Z,8.63
2022-10-29T12:11:21.007Z,7.93
2022-10-29T12:14:05.713Z,6.75
2022-10-29T12:16:57.054Z,9.38
2022-10-29T12:19:42.671Z,12.55
2022-10-29T12:22:22.356Z,9.10
2022-10-29T12:24:58.219Z,7.30
2022-10-29T12:27:34.061Z,10.10
2022-10-29T12:30:10.949Z,8.23
2022-10-29T12:33:16.757Z,9.05
2022-10-29T12:36:15.383Z,9.98
2022-10-29T12:38:50.631Z,6.30
2022-10-29T12:43:49.531Z,11.88
2022-10-29T12:46:45.243Z,7.53
2022-10-29T12:49:23.031Z,8.43
2022-10-29T12:52:15.412Z,7.47
2022-10-29T12:54:45.297Z,8.57
2022-10-29T12:57:15.417Z,7.13
2022-10-29T12:59:44.234Z,10.10
2022-10-29T13:02:46.894Z,10.40
2022-10-29T13:05:16.439Z,10.25
2022-10-29T13:07:46.557Z,7.88
2022-10-29T13:10:26.986Z,6.93
2022-10-29T13:13:05.692Z,10.77
2022-10-29T13:15:36.523Z,9.35
2022-10-29T13:18:08.553Z,8.70
2022-10-29T13:20:41.907Z,7.60
2022-10-29T13:23:24.857Z,7.63
2022-10-29T13:25:53.102Z,9.65
2022-10-29T13:28:20.168Z,8.52
2022-10-29T13:31:13.710Z,8.43
2022-10-29T13:33:40.779Z,9.52
2022-10-29T13:36:17.046Z,14.43
2022-10-29T13:39:04.398Z,8.43
2022-10-29T13:41:43.401Z,12.55
2022-10-29T13:44:23.430Z,8.88
2022-10-29T13:47:02.647Z,7.35
2022-10-29T13:49:47.755Z,6.95
2022-10-29T13:52:21.983Z,8.73
2022-10-29T13:54:55.034Z,12.68
2022-10-29T13:57:39.959Z,8.18
2022-10-29T14:00:13.029Z,7.37
2022-10-29T14:02:43.327Z,8.73
2022-10-29T14:05:39.065Z,5.22
2022-10-29T14:08:15.887Z,6.68
2022-10-29T14:10:45.437Z,9.15
2022-10-29T14:13:40.322Z,8.32
2022-10-29T14:16:07.446Z,7.22
2022-10-29T14:19:00.542Z,7.43
2022-10-29T14:21:30.712Z,7.40
2022-10-29T14:24:00.178Z,7.80
2022-10-29T14:26:29.443Z,9.43
2022-10-29T14:28:57.860Z,7.00
2022-10-29T14:31:30.787Z,7.97
2022-10-29T14:34:00.684Z,7.72
2022-10-29T14:36:32.455Z,8.43
2022-10-29T14:39:19.758Z,9.65
2022-10-29T14:41:47.663Z,9.60
2022-10-29T14:44:24.779Z,11.65
2022-10-29T14:47:01.824Z,14.23
2022-10-29T14:49:30.880Z,16.67
2022-10-29T14:52:05.966Z,18.77
2022-10-29T14:54:36.617Z,9.52
2022-10-29T14:57:15.027Z,12.80
2022-10-29T14:59:54.712Z,11.13
2022-10-29T15:02:39.149Z,13.88
2022-10-29T15:05:28.556Z,9.77
2022-10-29T15:08:11.093Z,8.88
2022-10-29T15:10:49.004Z,9.40
2022-10-29T15:13:28.232Z,8.90
2022-10-29T15:16:17.998Z,10.73
2022-10-29T15:18:54.271Z,44.67
2022-10-29T15:21:27.687Z,20.60
2022-10-29T15:24:08.050Z,20.48
2022-10-29T15:26:45.165Z,13.18
2022-10-29T15:29:13.168Z,13.35
2022-10-29T15:31:46.495Z,13.13
2022-10-29T15:34:32.666Z,19.75
2022-10-29T15:37:20.174Z,17.23
2022-10-29T15:40:16.199Z,15.18
2022-10-29T15:42:45.537Z,17.45
2022-10-29T15:47:50.186Z,17.63
2022-10-29T15:50:20.929Z,13.77
2022-10-29T15:52:59.527Z,15.32
2022-10-29T15:55:29.577Z,18.83
2022-10-29T15:58:12.285Z,17.17
2022-10-29T16:00:39.297Z,16.35
2022-10-29T16:03:17.825Z,25.13
2022-10-29T16:05:47.352Z,47.25
2022-10-29T16:08:26.019Z,68.65
2022-10-29T16:10:54.937Z,77.07
2022-10-29T16:13:24.170Z,73.07
2022-10-29T16:16:01.017Z,62.33
2022-10-29T16:18:28.796Z,70.47
2022-10-29T16:21:00.865Z,50.45
2022-10-29T16:23:29.831Z,51.97
2022-10-29T16:26:14.470Z,58.50
2022-10-29T16:28:43.778Z,72.63
2022-10-29T16:31:25.604Z,85.30
2022-10-29T16:33:56.992Z,84.28
2022-10-29T16:36:24.491Z,84.15
2022-10-29T16:38:51.402Z,63.53
2022-10-29T16:41:20.077Z,58.72
2022-10-29T16:43:47.950Z,55.72
2022-10-29T16:46:18.679Z,51.78
2022-10-29T16:48:45.802Z,53.78
2022-10-29T16:51:12.905Z,53.95
2022-10-29T16:53:39.895Z,53.83
2022-10-29T16:56:07.340Z,55.72
2022-10-29T16:58:34.509Z,49.88
2022-10-29T17:01:05.711Z,35.25
2022-10-29T17:03:33.378Z,30.88
2022-10-29T17:06:08.471Z,19.08
2022-10-29T17:08:36.831Z,17.38
2022-10-29T17:11:06.475Z,20.58
2022-10-29T17:13:34.810Z,19.35
2022-10-29T17:16:09.252Z,18.17
2022-10-29T17:18:36.343Z,19.02
2022-10-29T17:21:03.738Z,24.42
2022-10-29T17:23:31.987Z,25.65
2022-10-29T17:25:59.842Z,32.22
2022-10-29T17:28:28.006Z,24.85
2022-10-29T17:30:55.024Z,32.63
2022-10-29T17:33:21.939Z,32.70
2022-10-29T17:35:49.245Z,32.72
2022-10-29T17:38:16.664Z,33.00
2022-10-29T17:40:46.240Z,31.40
2022-10-29T17:43:13.573Z,25.92
2022-10-29T17:45:43.807Z,21.05
2022-10-29T17:48:11.791Z,20.42
2022-10-29T17:50:38.812Z,18.45
2022-10-29T17:53:05.972Z,19.13
2022-10-29T17:55:32.937Z,16.55
2022-10-29T17:58:00.301Z,16.48
2022-10-29T18:00:27.699Z,18.60
2022-10-29T18:02:54.802Z,18.38
2022-10-29T18:05:22.359Z,18.42
2022-10-29T18:07:49.485Z,13.55
2022-10-29T18:10:17.269Z,16.25
2022-10-29T18:12:44.388Z,15.50
2022-10-29T18:15:11.529Z,15.88
2022-10-29T18:17:40.511Z,14.38
2022-10-29T18:20:08.088Z,16.75
2022-10-29T18:22:35.217Z,13.85
2022-10-29T18:25:02.326Z,17.40
2022-10-29T18:27:29.375Z,14.38
2022-10-29T18:29:56.403Z,14.48
2022-10-29T18:32:24.977Z,15.57
2022-10-29T18:34:52.395Z,15.55
2022-10-29T18:37:19.516Z,13.52
2022-10-29T18:39:48.062Z,16.23
2022-10-29T18:42:15.414Z,15.30
2022-10-29T18:44:42.422Z,15.00
2022-10-29T18:47:09.429Z,17.38
2022-10-29T18:49:36.393Z,19.63
2022-10-29T18:52:05.216Z,14.43
2022-10-29T18:54:33.405Z,18.25
2022-10-29T18:57:00.684Z,16.58
2022-10-29T18:59:27.822Z,16.48
2022-10-29T19:01:56.301Z,17.60
2022-10-29T19:04:23.464Z,19.85
2022-10-29T19:06:50.455Z,16.92
2022-10-29T19:09:18.155Z,19.58
2022-10-29T19:11:50.986Z,15.27
2022-10-29T19:14:19.597Z,16.85
2022-10-29T19:16:46.740Z,19.42
2022-10-29T19:19:16.071Z,17.10
2022-10-29T19:21:46.448Z,18.75
2022-10-29T19:24:14.911Z,19.17
2022-10-29T19:26:42.387Z,16.13
2022-10-29T19:29:10.939Z,17.90
2022-10-29T19:31:38.514Z,20.50
2022-10-29T19:34:07.215Z,19.25
2022-10-29T19:36:36.400Z,17.90
2022-10-29T19:39:04.461Z,17.45
2022-10-29T19:41:32.283Z,19.98
2022-10-29T19:44:01.278Z,18.85
2022-10-29T19:46:28.692Z,18.17
2022-10-29T19:48:57.656Z,21.55
2022-10-29T19:51:25.165Z,21.25
2022-10-29T19:53:52.173Z,25.60
2022-10-29T19:56:20.195Z,26.38
2022-10-29T19:58:47.414Z,22.33
2022-10-29T20:01:16.563Z,23.63
2022-10-29T20:03:44.962Z,22.48
2022-10-29T20:06:12.773Z,22.55
2022-10-29T20:08:39.720Z,25.20
2022-10-29T20:11:07.292Z,23.02
2022-10-29T20:13:34.839Z,22.88
2022-10-29T20:16:12.017Z,22.95
2022-10-29T20:18:39.040Z,20.33
2022-10-29T20:21:07.022Z,21.90
2022-10-29T20:23:34.204Z,21.98
2022-10-29T20:26:01.545Z,22.70
2022-10-29T20:28:28.554Z,24.20
2022-10-29T20:31:17.077Z,19.83
2022-10-29T20:33:58.257Z,16.40
2022-10-29T20:36:27.638Z,17.65
2022-10-29T20:38:54.953Z,19.67
2022-10-29T20:41:22.841Z,17.83
2022-10-29T20:43:54.842Z,20.55
2022-10-29T20:46:23.209Z,20.52
2022-10-29T20:48:50.554Z,16.25
2022-10-29T20:51:17.662Z,18.40
2022-10-29T20:53:45.063Z,18.85
2022-10-29T20:56:15.987Z,16.92
2022-10-29T20:58:44.130Z,16.48
2022-10-29T21:01:14.261Z,15.45
2022-10-29T21:03:42.255Z,18.65
2022-10-29T21:06:15.787Z,18.42
2022-10-29T21:08:44.232Z,19.00
2022-10-29T21:11:13.055Z,19.08
2022-10-29T21:13:40.247Z,16.75
2022-10-29T21:16:16.361Z,17.88
2022-10-29T21:18:46.937Z,17.52
2022-10-29T21:21:14.274Z,17.92
2022-10-29T21:23:42.215Z,18.60
2022-10-29T21:26:15.256Z,18.67
2022-10-29T21:28:42.256Z,20.65
2022-10-29T21:31:09.546Z,16.17
2022-10-29T21:33:36.609Z,17.30
2022-10-29T21:36:04.037Z,17.40
2022-10-29T21:38:33.360Z,18.70
2022-10-29T21:41:03.558Z,17.13
2022-10-29T21:43:31.511Z,17.13
2022-10-29T21:45:59.172Z,20.10
2022-10-29T21:48:27.833Z,20.77
2022-10-29T21:51:06.890Z,17.08
2022-10-29T21:53:34.660Z,19.50
2022-10-29T21:56:04.101Z,18.00
2022-10-29T21:58:31.220Z,20.35
2022-10-29T22:01:15.889Z,20.25
2022-10-29T22:03:44.864Z,16.05
2022-10-29T22:06:14.947Z,17.35
2022-10-29T22:08:42.267Z,20.50
2022-10-29T22:11:11.041Z,18.20
2022-10-29T22:13:38.669Z,17.70
2022-10-29T22:16:07.059Z,21.42
2022-10-29T22:18:34.549Z,20.20
2022-10-29T22:21:12.117Z,22.95
2022-10-29T22:23:46.773Z,18.50
2022-10-29T22:26:15.602Z,18.92
2022-10-29T22:28:43.041Z,18.75
2022-10-29T22:31:10.360Z,18.88
2022-10-29T22:33:38.552Z,18.45
2022-10-29T22:36:11.282Z,17.23
2022-10-29T22:38:39.306Z,17.55
2022-10-29T22:41:12.239Z,16.33
2022-10-29T22:43:39.293Z,15.98
2022-10-29T22:46:08.492Z,17.83
2022-10-29T22:48:36.016Z,17.80
2022-10-29T22:51:04.447Z,18.63
2022-10-29T22:53:32.002Z,20.17
2022-10-29T22:56:00.024Z,16.00
2022-10-29T22:58:27.092Z,15.43
2022-10-29T23:01:03.408Z,16.17
2022-10-29T23:03:30.552Z,16.02
2022-10-29T23:05:58.469Z,16.92
2022-10-29T23:08:25.682Z,19.10
2022-10-29T23:10:53.055Z,15.90
2022-10-29T23:13:20.082Z,16.00
2022-10-29T23:15:53.167Z,15.75
2022-10-29T23:18:20.274Z,16.02
2022-10-29T23:20:47.134Z,16.80
2022-10-29T23:23:14.486Z,14.13
2022-10-29T23:25:42.545Z,19.05
2022-10-29T23:28:10.079Z,16.38
2022-10-29T23:30:36.922Z,18.17
2022-10-29T23:33:04.090Z,15.85
2022-10-29T23:35:33.805Z,16.25
2022-10-29T23:38:01.071Z,16.65
2022-10-29T23:40:28.385Z,18.35
2022-10-29T23:42:55.414Z,17.75
2022-10-29T23:45:22.300Z,14.23
2022-10-29T23:47:49.236Z,15.15
2022-10-29T23:50:16.255Z,14.27
2022-10-29T23:52:43.162Z,16.13
2022-10-29T23:55:10.265Z,14.30
2022-10-29T23:57:37.488Z,12.35
